createdAt,value
2022-12-27T00:01:39.353Z,101369.91
2022-12-27T00:04:10.762Z,101376.44
2022-12-27T00:06:42.354Z,101379.11
2022-12-27T00:09:13.969Z,101378.14
2022-12-27T00:11:45.335Z,101372.41
2022-12-27T00:14:16.652Z,101374.23
2022-12-27T00:16:48.056Z,101367.88
2022-12-27T00:19:19.335Z,101363.70
2022-12-27T00:21:52.506Z,101362.65
2022-12-27T00:24:23.852Z,101357.44
2022-12-27T00:26:55.079Z,101355.27
2022-12-27T00:29:26.294Z,101350.24
2022-12-27T00:31:57.704Z,101348.27
2022-12-27T00:34:29.153Z,101345.66
2022-12-27T00:37:00.680Z,101345.52
2022-12-27T00:39:32.242Z,101343.59
2022-12-27T00:42:03.657Z,101345.45
2022-12-27T00:44:35.142Z,101345.54
2022-12-27T00:47:06.718Z,101348.75
2022-12-27T00:49:38.247Z,101353.10
2022-12-27T00:52:09.437Z,101351.98
2022-12-27T00:54:40.630Z,101343.30
2022-12-27T00:57:12.088Z,101336.21
2022-12-27T00:59:43.723Z,101336.35
2022-12-27T01:02:15.308Z,101331.67
2022-12-27T01:04:46.624Z,101332.52
2022-12-27T01:07:18.436Z,101333.48
2022-12-27T01:09:49.787Z,101335.83
2022-12-27T01:12:21.450Z,101325.83
2022-12-27T01:14:52.919Z,101324.81
2022-12-27T01:17:24.324Z,101327.34
2022-12-27T01:19:55.508Z,101324.43
2022-12-27T01:22:26.883Z,101321.92
2022-12-27T01:24:58.162Z,101323.30
2022-12-27T01:27:29.624Z,101318.79
2022-12-27T01:30:00.855Z,101318.29
2022-12-27T01:32:33.675Z,101314.52
2022-12-27T01:35:05.211Z,101304.13
2022-12-27T01:37:36.711Z,101299.95
2022-12-27T01:40:09.311Z,101297.35
2022-12-27T01:42:55.926Z,101299.29
2022-12-27T01:45:28.058Z,101297.05
2022-12-27T01:48:00.606Z,101291.81
2022-12-27T01:50:32.965Z,101285.39
2022-12-27T01:53:05.938Z,101286.58
2022-12-27T01:55:40.233Z,101279.12
2022-12-27T01:58:12.787Z,101279.52
2022-12-27T02:00:44.969Z,101279.73
2022-12-27T02:03:17.822Z,101287.09
2022-12-27T02:05:49.334Z,101287.33
2022-12-27T02:08:25.601Z,101287.60
2022-12-27T02:10:57.055Z,101290.13
2022-12-27T02:13:31.076Z,101287.36
2022-12-27T02:16:02.492Z,101291.95
2022-12-27T02:18:34.128Z,101293.13
2022-12-27T02:21:11.735Z,101297.45
2022-12-27T02:24:05.054Z,101295.50
2022-12-27T02:26:45.498Z,101285.61
2022-12-27T02:29:33.098Z,101286.38
2022-12-27T02:32:05.823Z,101280.83
2022-12-27T02:34:38.824Z,101281.50
2022-12-27T02:37:11.297Z,101283.81
2022-12-27T02:39:43.630Z,101280.80
2022-12-27T02:42:33.102Z,101275.38
2022-12-27T02:45:22.277Z,101270.34
2022-12-27T02:48:10.824Z,101270.00
2022-12-27T02:51:03.994Z,101271.86
2022-12-27T02:53:37.324Z,101274.31
2022-12-27T02:56:29.604Z,101271.24
2022-12-27T02:59:06.049Z,101266.27
2022-12-27T03:01:56.758Z,101262.79
2022-12-27T03:04:33.420Z,101260.77
2022-12-27T03:07:08.666Z,101263.54
2022-12-27T03:10:13.932Z,101262.45
2022-12-27T03:13:07.404Z,101260.96
2022-12-27T03:15:56.584Z,101258.66
2022-12-27T03:18:30.181Z,101254.56
2022-12-27T03:21:19.179Z,101252.06
2022-12-27T03:24:08.490Z,101243.98
2022-12-27T03:26:40.932Z,101243.08
2022-12-27T03:29:29.847Z,101244.66
2022-12-27T03:32:19.456Z,101246.16
2022-12-27T03:34:55.326Z,101248.83
2022-12-27T03:37:45.369Z,101245.57
2022-12-27T03:40:19.659Z,101243.83
2022-12-27T03:43:11.011Z,101247.77
2022-12-27T03:46:03.331Z,101250.21
2022-12-27T03:48:35.288Z,101254.95
2022-12-27T03:51:06.839Z,101255.59
2022-12-27T03:53:38.577Z,101258.45
2022-12-27T03:56:10.110Z,101257.54
2022-12-27T03:58:41.408Z,101256.86
2022-12-27T04:01:12.859Z,101258.33
2022-12-27T04:03:44.758Z,101259.86
2022-12-27T04:06:16.433Z,101268.77
2022-12-27T04:09:05.431Z,101257.59
2022-12-27T04:11:54.521Z,101255.98
2022-12-27T04:14:43.515Z,101259.94
2022-12-27T04:17:32.919Z,101257.21
2022-12-27T04:20:22.230Z,101255.00
2022-12-27T04:23:11.392Z,101245.20
2022-12-27T04:26:00.426Z,101252.17
2022-12-27T04:28:49.662Z,101252.49
2022-12-27T04:31:38.885Z,101253.91
2022-12-27T04:34:27.826Z,101263.27
2022-12-27T04:36:58.920Z,101262.41
2022-12-27T04:39:30.212Z,101250.69
2022-12-27T04:42:20.376Z,101243.98
2022-12-27T04:45:14.829Z,101240.98
2022-12-27T04:48:04.997Z,101235.89
2022-12-27T04:50:53.922Z,101240.64
2022-12-27T04:53:42.771Z,101240.08
2022-12-27T04:56:14.406Z,101241.38
2022-12-27T04:58:59.764Z,101247.19
2022-12-27T05:01:49.041Z,101256.45
2022-12-27T05:04:20.339Z,101240.28
2022-12-27T05:06:51.991Z,101237.48
2022-12-27T05:09:46.332Z,101240.97
2022-12-27T05:12:35.369Z,101244.58
2022-12-27T05:15:07.612Z,101240.34
2022-12-27T05:17:38.980Z,101243.82
2022-12-27T05:20:11.470Z,101240.14
2022-12-27T05:23:00.674Z,101240.24
2022-12-27T05:25:38.755Z,101238.05
2022-12-27T05:28:10.714Z,101242.94
2022-12-27T05:30:42.596Z,101233.40
2022-12-27T05:33:13.848Z,101225.84
2022-12-27T05:35:45.315Z,101231.88
2022-12-27T05:38:16.826Z,101233.11
2022-12-27T05:40:48.351Z,101233.02
2022-12-27T05:43:19.790Z,101230.66
2022-12-27T05:45:51.135Z,101230.67
2022-12-27T05:48:22.937Z,101233.73
2022-12-27T05:50:54.448Z,101236.85
2022-12-27T05:53:26.148Z,101236.28
2022-12-27T05:55:57.664Z,101242.70
2022-12-27T05:58:29.155Z,101239.58
2022-12-27T06:01:00.656Z,101231.56
2022-12-27T06:03:32.266Z,101226.14
2022-12-27T06:06:04.107Z,101225.33
2022-12-27T06:08:35.778Z,101226.60
2022-12-27T06:11:08.738Z,101226.25
2022-12-27T06:13:40.560Z,101230.02
2022-12-27T06:16:13.014Z,101229.93
2022-12-27T06:18:44.796Z,101224.53
2022-12-27T06:21:16.772Z,101231.48
2022-12-27T06:23:48.272Z,101236.52
2022-12-27T06:26:20.541Z,101228.15
2022-12-27T06:28:52.429Z,101224.90
2022-12-27T06:31:23.890Z,101217.61
2022-12-27T06:33:55.610Z,101220.96
2022-12-27T06:36:29.010Z,101227.35
2022-12-27T06:39:00.773Z,101229.33
2022-12-27T06:41:32.330Z,101226.50
2022-12-27T06:44:03.923Z,101220.92
2022-12-27T06:46:35.287Z,101229.56
2022-12-27T06:49:06.652Z,101230.97
2022-12-27T06:51:38.150Z,101237.97
2022-12-27T06:54:09.761Z,101235.80
2022-12-27T06:56:55.801Z,101233.71
2022-12-27T06:59:34.676Z,101232.65
2022-12-27T07:02:13.370Z,101233.00
2022-12-27T07:04:54.531Z,101230.83
2022-12-27T07:07:27.821Z,101225.13
2022-12-27T07:10:02.169Z,101223.34
2022-12-27T07:12:37.501Z,101222.70
2022-12-27T07:15:12.367Z,101223.13
2022-12-27T07:17:44.593Z,101218.98
2022-12-27T07:20:16.287Z,101220.99
2022-12-27T07:22:47.808Z,101220.05
2022-12-27T07:25:22.803Z,101223.44
2022-12-27T07:27:55.945Z,101223.77
2022-12-27T07:30:27.396Z,101224.71
2022-12-27T07:32:58.647Z,101230.64
2022-12-27T07:35:33.040Z,101233.80
2022-12-27T07:38:04.915Z,101233.23
2022-12-27T07:40:38.812Z,101235.96
2022-12-27T07:43:10.235Z,101241.10
2022-12-27T07:45:42.025Z,101239.48
2022-12-27T07:48:13.639Z,101242.09
2022-12-27T07:50:45.067Z,101237.43
2022-12-27T07:53:16.532Z,101236.63
2022-12-27T07:55:48.899Z,101231.96
2022-12-27T07:58:20.502Z,101229.38
2022-12-27T08:00:52.468Z,101225.88
2022-12-27T08:03:23.828Z,101225.05
2022-12-27T08:05:55.625Z,101225.80
2022-12-27T08:08:29.115Z,101214.30
2022-12-27T08:11:05.273Z,101212.16
2022-12-27T08:13:37.372Z,101209.67
2022-12-27T08:16:09.212Z,101218.91
2022-12-27T08:18:40.495Z,101216.61
2022-12-27T08:21:12.300Z,101221.14
2022-12-27T08:23:43.960Z,101219.33
2022-12-27T08:26:15.498Z,101216.51
2022-12-27T08:28:46.871Z,101208.30
2022-12-27T08:31:18.233Z,101210.98
2022-12-27T08:33:56.541Z,101208.27
2022-12-27T08:36:54.828Z,101206.52
2022-12-27T08:39:21.472Z,101206.88
2022-12-27T08:41:52.844Z,101203.49
2022-12-27T08:44:24.182Z,101194.14
2022-12-27T08:46:55.747Z,101189.73
2022-12-27T08:49:27.271Z,101184.94
2022-12-27T08:52:01.963Z,101181.61
2022-12-27T08:54:34.605Z,101177.48
2022-12-27T08:57:06.218Z,101168.48
2022-12-27T08:59:39.582Z,101159.55
2022-12-27T09:02:12.353Z,101156.91
2022-12-27T09:04:43.975Z,101148.10
2022-12-27T09:07:15.405Z,101143.08
2022-12-27T09:09:46.728Z,101145.63
2022-12-27T09:12:18.086Z,101142.96
2022-12-27T09:14:49.800Z,101140.02
2022-12-27T09:17:21.969Z,101131.84
2022-12-27T09:19:53.468Z,101127.39
2022-12-27T09:22:25.120Z,101117.33
2022-12-27T09:24:56.680Z,101110.41
2022-12-27T09:27:28.279Z,101109.05
2022-12-27T09:30:01.425Z,101110.30
2022-12-27T09:32:34.058Z,101114.68
2022-12-27T09:35:05.674Z,101106.77
2022-12-27T09:37:37.236Z,101103.05
2022-12-27T09:40:10.834Z,101097.66
2022-12-27T09:42:54.749Z,101093.36
2022-12-27T09:45:35.353Z,101082.59
2022-12-27T09:48:07.528Z,101080.44
2022-12-27T09:50:43.610Z,101075.72
2022-12-27T09:53:19.313Z,101073.01
2022-12-27T09:55:52.258Z,101064.99
2022-12-27T09:58:28.223Z,101065.27
2022-12-27T10:00:59.583Z,101057.95
2022-12-27T10:03:31.507Z,101058.89
2022-12-27T10:06:05.209Z,101058.39
2022-12-27T10:08:38.808Z,101061.95
2022-12-27T10:11:31.764Z,101055.19
2022-12-27T10:14:05.313Z,101052.65
2022-12-27T10:16:38.348Z,101048.48
2022-12-27T10:19:16.480Z,101042.11
2022-12-27T10:21:53.557Z,101036.08
2022-12-27T10:24:25.479Z,101026.69
2022-12-27T10:26:56.809Z,101025.32
2022-12-27T10:29:28.441Z,101026.55
2022-12-27T10:32:12.487Z,101019.34
2022-12-27T10:34:45.880Z,101016.39
2022-12-27T10:38:50.083Z,101011.21
2022-12-27T10:40:57.945Z,101007.08
2022-12-27T10:43:52.564Z,101005.73
2022-12-27T10:46:47.024Z,101008.31
2022-12-27T10:49:27.293Z,101005.21
2022-12-27T10:52:16.777Z,100998.31
2022-12-27T10:54:55.770Z,100993.73
2022-12-27T10:57:28.534Z,100998.45
2022-12-27T11:00:35.753Z,101002.63
2022-12-27T11:03:10.629Z,101018.93
2022-12-27T11:05:48.438Z,101026.13
2022-12-27T11:08:22.312Z,101022.53
2022-12-27T11:10:53.795Z,101025.67
2022-12-27T11:13:25.395Z,101026.52
2022-12-27T11:15:58.910Z,101022.98
2022-12-27T11:18:30.500Z,101019.89
2022-12-27T11:21:02.164Z,101014.44
2022-12-27T11:23:35.597Z,101018.94
2022-12-27T11:26:07.438Z,101015.11
2022-12-27T11:28:40.108Z,101001.01
2022-12-27T11:31:12.121Z,101002.92
2022-12-27T11:33:43.837Z,101008.88
2022-12-27T11:36:15.875Z,101008.59
2022-12-27T11:38:48.180Z,101005.98
2022-12-27T11:41:27.581Z,101012.20
2022-12-27T11:44:00.720Z,101015.20
2022-12-27T11:46:32.487Z,101013.29
2022-12-27T11:49:04.007Z,101019.63
2022-12-27T11:51:48.791Z,101022.06
2022-12-27T11:54:24.424Z,101026.01
2022-12-27T11:56:56.877Z,101029.40
2022-12-27T11:59:40.726Z,101031.47
2022-12-27T12:02:32.453Z,101028.14
2022-12-27T12:05:32.256Z,101034.43
2022-12-27T12:08:37.648Z,101029.48
2022-12-27T12:11:13.284Z,101032.48
2022-12-27T12:13:52.164Z,101033.42
2022-12-27T12:16:32.826Z,101036.65
2022-12-27T12:19:14.653Z,101041.34
2022-12-27T12:21:48.415Z,101039.44
2022-12-27T12:24:38.173Z,101039.00
2022-12-27T12:27:37.886Z,101043.95
2022-12-27T12:30:27.303Z,101045.90
2022-12-27T12:33:03.973Z,101057.41
2022-12-27T12:35:40.942Z,101057.45
2022-12-27T12:38:18.305Z,101057.81
2022-12-27T12:41:00.916Z,101055.04
2022-12-27T12:43:38.660Z,101058.84
2022-12-27T12:46:17.416Z,101062.40
2022-12-27T12:49:04.708Z,101065.48
2022-12-27T12:51:52.098Z,101063.48
2022-12-27T12:54:41.649Z,101062.49
2022-12-27T12:57:17.192Z,101066.39
2022-12-27T12:59:56.032Z,101064.02
2022-12-27T13:02:39.730Z,101061.73
2022-12-27T13:05:35.054Z,101069.08
2022-12-27T13:08:23.771Z,101084.61
2022-12-27T13:11:13.059Z,101087.33
2022-12-27T13:16:50.495Z,101088.21
2022-12-27T13:19:56.319Z,101097.29
2022-12-27T13:22:30.256Z,101101.03
2022-12-27T13:25:18.585Z,101096.98
2022-12-27T13:27:55.667Z,101104.25
2022-12-27T13:30:35.104Z,101105.31
2022-12-27T13:33:45.268Z,101110.16
2022-12-27T13:36:43.658Z,101114.86
2022-12-27T13:39:35.641Z,101115.00
2022-12-27T13:42:28.696Z,101116.36
2022-12-27T13:45:06.328Z,101112.98
2022-12-27T13:47:58.478Z,101114.47
2022-12-27T13:50:58.123Z,101117.60
2022-12-27T13:54:14.376Z,101120.72
2022-12-27T13:56:54.790Z,101123.33
2022-12-27T13:59:31.548Z,101133.64
2022-12-27T14:02:25.900Z,101132.08
2022-12-27T14:05:17.159Z,101132.83
2022-12-27T14:08:09.166Z,101135.11
2022-12-27T14:11:00.857Z,101135.60
2022-12-27T14:13:34.752Z,101136.02
2022-12-27T14:16:15.444Z,101141.32
2022-12-27T14:19:19.721Z,101140.67
2022-12-27T14:23:23.354Z,101139.65
2022-12-27T14:26:47.904Z,101141.21
2022-12-27T14:29:36.465Z,101142.70
2022-12-27T14:32:33.723Z,101148.84
2022-12-27T14:35:19.481Z,101149.17
2022-12-27T14:38:21.529Z,101153.08
2022-12-27T14:41:24.383Z,101153.73
2022-12-27T14:44:12.047Z,101164.40
2022-12-27T14:46:53.517Z,101165.04
2022-12-27T14:49:44.077Z,101168.73
2022-12-27T14:52:33.656Z,101170.84
2022-12-27T14:55:15.261Z,101177.52
2022-12-27T14:57:48.889Z,101183.52
2022-12-27T15:00:21.465Z,101184.34
2022-12-27T15:02:58.185Z,101186.01
2022-12-27T15:05:34.575Z,101192.30
2022-12-27T15:08:25.696Z,101187.81
2022-12-27T15:11:09.600Z,101189.71
2022-12-27T15:13:44.659Z,101192.39
2022-12-27T15:16:17.193Z,101193.45
2022-12-27T15:18:57.772Z,101199.64
2022-12-27T15:21:42.540Z,101199.27
2022-12-27T15:24:22.522Z,101204.55
2022-12-27T15:26:55.784Z,101208.21
2022-12-27T15:29:32.097Z,101214.00
2022-12-27T15:32:05.280Z,101219.85
2022-12-27T15:34:45.335Z,101223.08
2022-12-27T15:37:34.113Z,101230.94
2022-12-27T15:40:05.890Z,101234.67
2022-12-27T15:42:48.973Z,101243.26
2022-12-27T15:45:24.019Z,101241.93
2022-12-27T15:48:02.063Z,101239.98
2022-12-27T15:50:41.546Z,101248.52
2022-12-27T15:53:25.717Z,101247.31
2022-12-27T15:56:07.105Z,101242.79
2022-12-27T15:58:38.665Z,101243.70
2022-12-27T16:01:26.900Z,101245.98
2022-12-27T16:04:02.243Z,101254.53
2022-12-27T16:06:50.089Z,101255.38
2022-12-27T16:09:23.390Z,101255.77
2022-12-27T16:12:02.219Z,101263.60
2022-12-27T16:14:34.520Z,101265.25
2022-12-27T16:17:08.795Z,101269.13
2022-12-27T16:20:02.123Z,101263.68
2022-12-27T16:22:34.395Z,101273.48
2022-12-27T16:25:25.401Z,101270.11
2022-12-27T16:28:00.607Z,101274.67
2022-12-27T16:30:42.455Z,101277.11
2022-12-27T16:33:37.849Z,101284.29
2022-12-27T16:36:17.706Z,101284.99
2022-12-27T16:38:50.139Z,101285.73
2022-12-27T16:41:23.839Z,101288.33
2022-12-27T16:43:56.311Z,101285.90
2022-12-27T16:46:32.479Z,101289.27
2022-12-27T16:49:29.384Z,101291.35
2022-12-27T16:52:08.087Z,101302.75
2022-12-27T16:54:44.157Z,101310.61
2022-12-27T16:57:32.478Z,101311.21
2022-12-27T17:00:05.671Z,101309.02
2022-12-27T17:02:42.119Z,101303.89
2022-12-27T17:05:32.953Z,101304.10
2022-12-27T17:08:18.221Z,101306.42
2022-12-27T17:11:09.857Z,101305.30
2022-12-27T17:13:46.423Z,101311.20
2022-12-27T17:16:21.941Z,101315.69
2022-12-27T17:18:54.725Z,101328.98
2022-12-27T17:21:30.873Z,101339.45
2022-12-27T17:24:05.763Z,101340.67
2022-12-27T17:26:48.100Z,101345.89
2022-12-27T17:29:30.039Z,101350.04
2022-12-27T17:32:02.787Z,101358.77
2022-12-27T17:34:35.641Z,101363.71
2022-12-27T17:37:12.728Z,101366.75
2022-12-27T17:39:50.763Z,101368.88
2022-12-27T17:42:44.862Z,101366.67
2022-12-27T17:45:19.445Z,101361.31
2022-12-27T17:47:57.202Z,101369.94
2022-12-27T17:50:28.807Z,101374.16
2022-12-27T17:53:34.413Z,101374.12
2022-12-27T17:56:30.499Z,101378.09
2022-12-27T17:59:10.338Z,101377.16
2022-12-27T18:01:46.047Z,101384.51
2022-12-27T18:04:20.155Z,101382.64
2022-12-27T18:06:54.437Z,101385.98
2022-12-27T18:09:41.964Z,101389.79
2022-12-27T18:12:15.031Z,101391.41
2022-12-27T18:14:46.469Z,101392.34
2022-12-27T18:17:28.442Z,101394.41
2022-12-27T18:20:00.939Z,101386.70
2022-12-27T18:22:32.378Z,101387.04
2022-12-27T18:25:05.543Z,101387.20
2022-12-27T18:27:37.111Z,101393.79
2022-12-27T18:30:11.920Z,101398.84
2022-12-27T18:32:43.486Z,101399.80
2022-12-27T18:35:16.521Z,101403.21
2022-12-27T18:37:49.976Z,101412.63
2022-12-27T18:40:22.102Z,101412.27
2022-12-27T18:42:54.765Z,101417.68
2022-12-27T18:45:27.250Z,101424.82
2022-12-27T18:48:00.950Z,101432.58
2022-12-27T18:50:32.979Z,101433.17
2022-12-27T18:53:05.500Z,101438.54
2022-12-27T18:55:37.114Z,101439.24
2022-12-27T18:58:20.202Z,101445.35
2022-12-27T19:00:53.329Z,101447.95
2022-12-27T19:03:24.739Z,101451.78
2022-12-27T19:06:00.170Z,101452.05
2022-12-27T19:08:34.124Z,101455.77
2022-12-27T19:11:05.827Z,101460.21
2022-12-27T19:13:49.977Z,101464.77
2022-12-27T19:16:22.984Z,101478.66
2022-12-27T19:18:55.328Z,101483.88
2022-12-27T19:21:36.862Z,101485.02
2022-12-27T19:24:31.915Z,101492.61
2022-12-27T19:27:18.082Z,101498.20
2022-12-27T19:29:52.251Z,101501.19
2022-12-27T19:32:24.568Z,101500.76
2022-12-27T19:34:57.549Z,101503.44
2022-12-27T19:37:29.500Z,101509.06
2022-12-27T19:40:00.923Z,101508.53
2022-12-27T19:42:33.385Z,101505.08
2022-12-27T19:45:04.882Z,101502.77
2022-12-27T19:47:39.931Z,101503.61
2022-12-27T19:50:12.611Z,101506.16
2022-12-27T19:52:43.891Z,101511.16
2022-12-27T19:55:18.108Z,101513.07
2022-12-27T19:57:49.482Z,101517.25
2022-12-27T20:00:22.139Z,101524.11
2022-12-27T20:02:53.784Z,101528.02
2022-12-27T20:06:12.999Z,101523.86
2022-12-27T20:08:25.315Z,101528.16
2022-12-27T20:10:57.385Z,101527.95
2022-12-27T20:13:29.144Z,101532.98
2022-12-27T20:16:01.034Z,101531.14
2022-12-27T20:18:32.448Z,101528.50
2022-12-27T20:21:03.797Z,101533.98
2022-12-27T20:23:35.104Z,101537.10
2022-12-27T20:26:06.686Z,101547.91
2022-12-27T20:28:38.434Z,101554.64
2022-12-27T20:31:10.140Z,101554.77
2022-12-27T20:33:41.253Z,101560.75
2022-12-27T20:36:12.747Z,101566.09
2022-12-27T20:38:44.204Z,101577.33
2022-12-27T20:41:19.217Z,101580.61
2022-12-27T20:43:50.513Z,101581.20
2022-12-27T20:46:23.621Z,101589.58
2022-12-27T20:48:57.859Z,101591.71
2022-12-27T20:51:33.557Z,101600.08
2022-12-27T20:54:05.229Z,101596.98
2022-12-27T20:56:36.886Z,101601.34
2022-12-27T20:59:08.072Z,101601.77
2022-12-27T21:01:39.443Z,101605.80
2022-12-27T21:04:11.923Z,101609.14
2022-12-27T21:06:43.407Z,101604.62
2022-12-27T21:09:14.633Z,101614.48
2022-12-27T21:11:45.811Z,101616.96
2022-12-27T21:14:17.315Z,101619.96
2022-12-27T21:16:48.909Z,101632.06
2022-12-27T21:19:20.448Z,101644.20
2022-12-27T21:21:51.711Z,101645.98
2022-12-27T21:24:22.885Z,101642.83
2022-12-27T21:26:56.560Z,101644.10
2022-12-27T21:29:28.545Z,101647.61
2022-12-27T21:32:01.615Z,101648.48
2022-12-27T21:34:33.051Z,101649.95
2022-12-27T21:37:10.079Z,101650.34
2022-12-27T21:39:44.735Z,101654.04
2022-12-27T21:42:16.186Z,101656.55
2022-12-27T21:44:47.763Z,101652.98
2022-12-27T21:47:19.003Z,101651.86
2022-12-27T21:49:50.269Z,101650.34
2022-12-27T21:52:21.884Z,101653.73
2022-12-27T21:54:53.481Z,101665.87
2022-12-27T21:57:25.007Z,101668.49
2022-12-27T21:59:56.719Z,101676.74
2022-12-27T22:02:28.583Z,101686.18
2022-12-27T22:05:00.281Z,101692.46
2022-12-27T22:07:32.047Z,101697.45
2022-12-27T22:10:03.589Z,101701.56
2022-12-27T22:12:35.096Z,101707.67
2022-12-27T22:15:07.602Z,101709.83
2022-12-27T22:17:39.106Z,101714.45
2022-12-27T22:20:11.578Z,101716.73
2022-12-27T22:22:43.132Z,101710.30
2022-12-27T22:25:14.547Z,101715.21
2022-12-27T22:27:45.936Z,101717.48
2022-12-27T22:30:17.329Z,101722.33
2022-12-27T22:32:48.754Z,101737.70
2022-12-27T22:35:20.343Z,101749.54
2022-12-27T22:37:51.833Z,101759.04
2022-12-27T22:40:40.761Z,101765.29
2022-12-27T22:43:14.681Z,101772.04
2022-12-27T22:45:51.963Z,101779.60
2022-12-27T22:48:25.442Z,101791.84
2022-12-27T22:50:56.757Z,101793.02
2022-12-27T22:53:28.092Z,101793.11
2022-12-27T22:55:59.449Z,101793.67
2022-12-27T22:58:32.683Z,101791.85
2022-12-27T23:01:04.206Z,101792.23
2022-12-27T23:03:35.555Z,101796.23
2022-12-27T23:06:06.991Z,101803.61
2022-12-27T23:08:38.585Z,101808.35
2022-12-27T23:11:11.977Z,101811.42
2022-12-27T23:13:43.639Z,101812.55
2022-12-27T23:16:15.249Z,101812.61
2022-12-27T23:18:46.761Z,101821.16
2022-12-27T23:21:20.223Z,101823.69
2022-12-27T23:23:55.544Z,101836.33
2022-12-27T23:26:27.180Z,101845.16
2022-12-27T23:28:58.486Z,101849.38
2022-12-27T23:31:29.821Z,101854.44
2022-12-27T23:34:01.191Z,101856.73
2022-12-27T23:36:33.703Z,101846.10
2022-12-27T23:39:05.510Z,101838.80
2022-12-27T23:41:37.289Z,101837.65
2022-12-27T23:44:08.832Z,101838.18
2022-12-27T23:46:40.219Z,101841.71
2022-12-27T23:49:11.733Z,101847.95
2022-12-27T23:51:43.184Z,101856.02
2022-12-27T23:54:14.497Z,101867.89
2022-12-27T23:56:45.710Z,101866.95
2022-12-27T23:59:17.693Z,101867.08
